Zeran (malta) — 9HHJ5 — position and weather

sailwx.info

Track history (hours):
 
Tides and Currents Weather Stations Pressure Air Temp Water Temp Dewpoint Dewpoint Depression Visibility Wind Speed Wind Dir Waves Ship Positions

Zeran (malta)

Last reported at 2015-Mar-03 16:33 UTC. Time now 2015-Mar-03 16:37 UTC.
Position N 44°24' E 008°53'.

Length 148 m; beam 24 m.

Type: Ship (hazmat cat A). MMSI: 249846000.

Date/timePositionNaut miles runAvg speedWind from/ knotsBaromVisibWave heightAir tempDewpointWater temp
2015-Mar-03 16:33N 44°24' E 008°53'0 0.0
2015-Mar-03 15:31N 44°24' E 008°53'0 0.0
2015-Mar-03 14:31N 44°24' E 008°53'0 0.0
2015-Mar-03 13:31N 44°24' E 008°53'0 0.0
2015-Mar-03 12:28N 44°24' E 008°53'0 0.0
2015-Mar-03 11:31N 44°24' E 008°53'0 0.0
2015-Mar-03 10:31N 44°24' E 008°53'0 0.0
2015-Mar-03 09:31N 44°24' E 008°53'0 0.0
2015-Mar-03 08:31N 44°24' E 008°53'0 0.0
2015-Mar-03 07:28N 44°24' E 008°53'0 0.0
2015-Mar-03 06:25N 44°24' E 008°53'0 0.0
2015-Mar-03 05:28N 44°24' E 008°53'0 0.0
2015-Mar-03 04:31N 44°24' E 008°53'0 0.0
2015-Mar-03 03:31N 44°24' E 008°53'0 0.0
2015-Mar-03 02:31N 44°24' E 008°53'0 0.0
2015-Mar-03 01:31N 44°24' E 008°53'0 0.0
2015-Mar-03 00:31N 44°24' E 008°53'0 0.0
2015-Mar-02 23:31N 44°24' E 008°53'0 0.0
2015-Mar-02 22:31N 44°24' E 008°53'0 0.0
2015-Mar-02 21:16N 44°24' E 008°53'0 0.0
2015-Mar-02 20:13N 44°24' E 008°53'0 0.0
2015-Mar-02 19:31N 44°24' E 008°53'0 0.0
2015-Mar-02 18:31N 44°24' E 008°53'0 0.0
2015-Mar-02 17:22N 44°24' E 008°53'0 0.0
2015-Mar-02 16:28N 44°24' E 008°53'0 0.0
2015-Mar-02 15:31N 44°24' E 008°53'0 0.0
2015-Mar-02 14:16N 44°24' E 008°53'0 0.0
2015-Mar-02 13:31N 44°24' E 008°53'0 0.0
2015-Mar-02 12:16N 44°24' E 008°53'0 0.0
2015-Mar-02 11:28N 44°24' E 008°53'0 0.0
2015-Mar-02 10:28N 44°24' E 008°53'0 0.4
2015-Mar-02 09:28N 44°24' E 008°53'0 0.0
2015-Mar-02 08:28N 44°24' E 008°53'0 0.0
2015-Mar-02 07:31N 44°24' E 008°53'0 0.0
2015-Mar-02 06:31N 44°24' E 008°53'0 0.0
2015-Mar-02 05:16N 44°24' E 008°53'0 0.0
2015-Mar-02 04:22N 44°24' E 008°53'0 0.0
2015-Mar-02 03:31N 44°24' E 008°53'0 0.0
2015-Mar-02 02:31N 44°24' E 008°53'0 0.0
2015-Mar-02 01:31N 44°24' E 008°53'0 0.0
2015-Mar-02 00:25N 44°24' E 008°53'0 0.0
2015-Mar-01 23:31N 44°24' E 008°53'0 0.0
2015-Mar-01 22:28N 44°24' E 008°53'0 0.0
2015-Mar-01 21:28N 44°24' E 008°53'0 0.0
2015-Mar-01 20:16N 44°24' E 008°53'0 0.0
2015-Mar-01 19:28N 44°24' E 008°53'0 0.0
2015-Mar-01 18:04N 44°24' E 008°53'0 0.0
2015-Mar-01 17:31N 44°24' E 008°53'2 2.4
2015-Mar-01 16:33N 44°24' E 008°56'8 7.7
2015-Mar-01 15:33N 44°17' E 009°01'1010.0
2015-Mar-01 14:33N 44°07' E 009°05'1211.5
2015-Mar-01 13:33N 43°56' E 009°11'1211.5
2015-Mar-01 12:33N 43°46' E 009°16'1111.4
2015-Mar-01 11:33N 43°35' E 009°22'1111.4
2015-Mar-01 10:33N 43°24' E 009°27'1111.4
2015-Mar-01 09:33N 43°13' E 009°32'1312.1
2015-Mar-01 08:31N 43°02' E 009°38'2611.9
2015-Mar-01 06:18N 42°37' E 009°51'19311.5
2015-Feb-28 13:28N 40°45' E 013°21'1212.2
2015-Feb-28 12:30N 40°40' E 013°35'1212.4
2015-Feb-28 11:30N 40°36' E 013°51'1212.1
2015-Feb-28 10:33N 40°32' E 014°05'1111.4
2015-Feb-28 09:33N 40°32' E 014°20'1211.4
2015-Feb-28 08:31N 40°34' E 014°35'6 0.3
2015-Feb-27 12:32N 40°33' E 014°43'1 0.6
2015-Feb-27 11:28N 40°32' E 014°43'7 1.6
2015-Feb-27 07:04N 40°29' E 014°34'14 8.9
2015-Feb-27 05:28N 40°18' E 014°22'159 9.4
2015-Feb-26 12:33N 38°16' E 012°12'9 9.3
2015-Feb-26 11:33N 38°09' E 012°04'10 8.9
2015-Feb-26 10:26N 38°01' E 011°56'11 8.8
2015-Feb-26 09:08N 37°50' E 011°60'5 8.8
2015-Feb-26 08:33N 37°45' E 012°03'  
Track history (hours):
 
Tides and Currents Weather Stations Pressure Air Temp Water Temp Dewpoint Dewpoint Depression Visibility Wind Speed Wind Dir Waves Ship Positions

Zeran (malta)

Last reported at 2015-Mar-03 16:33 UTC. Time now 2015-Mar-03 16:37 UTC.
Position N 44°24' E 008°53'.

Length 148 m; beam 24 m.

Type: Ship (hazmat cat A). MMSI: 249846000.

Date/timePositionNaut miles runAvg speedWind from/ knotsBaromVisibWave heightAir tempDewpointWater temp
2015-Mar-03 16:33N 44°24' E 008°53'0 0.0
2015-Mar-03 15:31N 44°24' E 008°53'0 0.0
2015-Mar-03 14:31N 44°24' E 008°53'0 0.0
2015-Mar-03 13:31N 44°24' E 008°53'0 0.0
2015-Mar-03 12:28N 44°24' E 008°53'0 0.0
2015-Mar-03 11:31N 44°24' E 008°53'0 0.0
2015-Mar-03 10:31N 44°24' E 008°53'0 0.0
2015-Mar-03 09:31N 44°24' E 008°53'0 0.0
2015-Mar-03 08:31N 44°24' E 008°53'0 0.0
2015-Mar-03 07:28N 44°24' E 008°53'0 0.0
2015-Mar-03 06:25N 44°24' E 008°53'0 0.0
2015-Mar-03 05:28N 44°24' E 008°53'0 0.0
2015-Mar-03 04:31N 44°24' E 008°53'0 0.0
2015-Mar-03 03:31N 44°24' E 008°53'0 0.0
2015-Mar-03 02:31N 44°24' E 008°53'0 0.0
2015-Mar-03 01:31N 44°24' E 008°53'0 0.0
2015-Mar-03 00:31N 44°24' E 008°53'0 0.0
2015-Mar-02 23:31N 44°24' E 008°53'0 0.0
2015-Mar-02 22:31N 44°24' E 008°53'0 0.0
2015-Mar-02 21:16N 44°24' E 008°53'0 0.0
2015-Mar-02 20:13N 44°24' E 008°53'0 0.0
2015-Mar-02 19:31N 44°24' E 008°53'0 0.0
2015-Mar-02 18:31N 44°24' E 008°53'0 0.0
2015-Mar-02 17:22N 44°24' E 008°53'0 0.0
2015-Mar-02 16:28N 44°24' E 008°53'0 0.0
2015-Mar-02 15:31N 44°24' E 008°53'0 0.0
2015-Mar-02 14:16N 44°24' E 008°53'0 0.0
2015-Mar-02 13:31N 44°24' E 008°53'0 0.0
2015-Mar-02 12:16N 44°24' E 008°53'0 0.0
2015-Mar-02 11:28N 44°24' E 008°53'0 0.0
2015-Mar-02 10:28N 44°24' E 008°53'0 0.4
2015-Mar-02 09:28N 44°24' E 008°53'0 0.0
2015-Mar-02 08:28N 44°24' E 008°53'0 0.0
2015-Mar-02 07:31N 44°24' E 008°53'0 0.0
2015-Mar-02 06:31N 44°24' E 008°53'0 0.0
2015-Mar-02 05:16N 44°24' E 008°53'0 0.0
2015-Mar-02 04:22N 44°24' E 008°53'0 0.0
2015-Mar-02 03:31N 44°24' E 008°53'0 0.0
2015-Mar-02 02:31N 44°24' E 008°53'0 0.0
2015-Mar-02 01:31N 44°24' E 008°53'0 0.0
2015-Mar-02 00:25N 44°24' E 008°53'0 0.0
2015-Mar-01 23:31N 44°24' E 008°53'0 0.0
2015-Mar-01 22:28N 44°24' E 008°53'0 0.0
2015-Mar-01 21:28N 44°24' E 008°53'0 0.0
2015-Mar-01 20:16N 44°24' E 008°53'0 0.0
2015-Mar-01 19:28N 44°24' E 008°53'0 0.0
2015-Mar-01 18:04N 44°24' E 008°53'0 0.0
2015-Mar-01 17:31N 44°24' E 008°53'2 2.4
2015-Mar-01 16:33N 44°24' E 008°56'8 7.7
2015-Mar-01 15:33N 44°17' E 009°01'1010.0
2015-Mar-01 14:33N 44°07' E 009°05'1211.5
2015-Mar-01 13:33N 43°56' E 009°11'1211.5
2015-Mar-01 12:33N 43°46' E 009°16'1111.4
2015-Mar-01 11:33N 43°35' E 009°22'1111.4
2015-Mar-01 10:33N 43°24' E 009°27'1111.4
2015-Mar-01 09:33N 43°13' E 009°32'1312.1
2015-Mar-01 08:31N 43°02' E 009°38'2611.9
2015-Mar-01 06:18N 42°37' E 009°51'19311.5
2015-Feb-28 13:28N 40°45' E 013°21'1212.2
2015-Feb-28 12:30N 40°40' E 013°35'1212.4
2015-Feb-28 11:30N 40°36' E 013°51'1212.1
2015-Feb-28 10:33N 40°32' E 014°05'1111.4
2015-Feb-28 09:33N 40°32' E 014°20'1211.4
2015-Feb-28 08:31N 40°34' E 014°35'6 0.3
2015-Feb-27 12:32N 40°33' E 014°43'1 0.6
2015-Feb-27 11:28N 40°32' E 014°43'7 1.6
2015-Feb-27 07:04N 40°29' E 014°34'14 8.9
2015-Feb-27 05:28N 40°18' E 014°22'159 9.4
2015-Feb-26 12:33N 38°16' E 012°12'9 9.3
2015-Feb-26 11:33N 38°09' E 012°04'10 8.9
2015-Feb-26 10:26N 38°01' E 011°56'11 8.8
2015-Feb-26 09:08N 37°50' E 011°60'5 8.8
2015-Feb-26 08:33N 37°45' E 012°03'  

Dump ship's entire track history